Time;durP1;ratioP1;P1;durP2;ratioP2;P2;SDS_P1;SDS_P2;PMS_P1;PMS_P2;Temp;Humidity;BMP_temperature;BMP_pressure;BME280_temperature;BME280_humidity;BME280_pressure;Samples;Min_cycle;Max_cycle;Signal;HPM_P1;HPM_P2
2024/03/11 00:00:17;;;;;;;4.63;2.25;;;21.60;56.70;;;;;;5029501;27;92329;-51
2024/03/11 00:02:45;;;;;;;3.28;2.45;;;21.60;56.70;;;;;;5032486;27;91334;-52
2024/03/11 00:05:11;;;;;;;3.67;1.95;;;21.60;56.60;;;;;;5032730;27;93743;-52
2024/03/11 00:07:41;;;;;;;3.83;2.10;;;21.60;56.60;;;;;;5031105;27;92218;-53
2024/03/11 00:10:14;;;;;;;5.40;2.08;;;21.50;56.60;;;;;;5029770;27;93592;-56
2024/03/11 00:12:49;;;;;;;3.53;2.53;;;21.60;56.60;;;;;;5031778;27;92680;-52
2024/03/11 00:15:15;;;;;;;3.13;2.63;;;21.60;56.60;;;;;;5027892;27;93139;-55
2024/03/11 00:17:42;;;;;;;3.42;2.72;;;21.50;56.60;;;;;;5028165;27;92785;-52
2024/03/11 00:20:11;;;;;;;3.22;2.22;;;21.50;56.70;;;;;;5032575;28;92079;-53
2024/03/11 00:22:38;;;;;;;3.47;2.05;;;21.50;56.60;;;;;;5031468;27;92307;-52
2024/03/11 00:25:08;;;;;;;2.67;1.67;;;21.50;56.50;;;;;;5029351;27;93498;-51
2024/03/11 00:27:37;;;;;;;3.65;2.38;;;21.50;56.40;;;;;;5031378;27;93183;-54
2024/03/11 00:30:08;;;;;;;2.95;2.10;;;21.50;56.60;;;;;;5031812;27;92281;-50
2024/03/11 00:32:35;;;;;;;3.25;2.00;;;21.50;56.50;;;;;;5030958;27;92076;-53
2024/03/11 00:35:02;;;;;;;3.75;3.05;;;21.50;56.50;;;;;;5029996;27;95063;-50
2024/03/11 00:37:29;;;;;;;4.10;2.50;;;21.50;56.30;;;;;;5014079;27;93741;-52
2024/03/11 00:39:54;;;;;;;3.22;2.20;;;21.50;56.40;;;;;;5026501;27;91965;-49
2024/03/11 00:42:20;;;;;;;2.78;2.00;;;21.50;56.40;;;;;;5010444;27;92278;-55
2024/03/11 00:44:48;;;;;;;2.50;1.90;;;21.50;56.40;;;;;;5010973;27;93947;-50
2024/03/11 00:47:18;;;;;;;5.40;2.30;;;21.40;56.30;;;;;;5009182;27;94359;-55
2024/03/11 00:49:45;;;;;;;3.22;2.13;;;21.40;56.30;;;;;;5012407;28;92429;-51
2024/03/11 00:52:10;;;;;;;3.63;1.92;;;21.40;56.30;;;;;;5011507;27;91654;-51
2024/03/11 00:54:38;;;;;;;3.35;2.03;;;21.40;56.40;;;;;;5012625;27;93460;-52
2024/03/11 00:57:05;;;;;;;2.58;2.00;;;21.40;56.30;;;;;;5026271;27;92831;-52
2024/03/11 00:59:30;;;;;;;2.05;1.83;;;21.40;56.30;;;;;;5029689;27;94416;-53
2024/03/11 01:01:56;;;;;;;1.80;1.52;;;21.40;56.40;;;;;;5028010;28;92440;-50
2024/03/11 01:04:22;;;;;;;11.60;2.13;;;21.40;56.30;;;;;;5025182;27;93288;-54
2024/03/11 01:06:49;;;;;;;3.83;2.15;;;21.40;56.40;;;;;;5027034;27;93552;-47
2024/03/11 01:09:20;;;;;;;3.35;2.28;;;21.40;56.30;;;;;;5012369;27;92174;-56
2024/03/11 01:11:47;;;;;;;3.40;2.13;;;21.40;56.30;;;;;;5027573;27;91946;-49
2024/03/11 01:14:14;;;;;;;4.28;2.10;;;21.40;56.30;;;;;;5016313;28;94315;-49
2024/03/11 01:16:40;;;;;;;3.38;2.20;;;21.40;56.30;;;;;;5014877;28;97130;-50
2024/03/11 01:19:07;;;;;;;3.40;2.00;;;21.40;56.20;;;;;;5004547;27;92300;-51
2024/03/11 01:21:35;;;;;;;3.75;2.40;;;21.30;56.00;;;;;;5006216;27;93462;-49
2024/03/11 01:24:07;;;;;;;2.58;2.08;;;21.40;56.30;;;;;;5010411;27;94547;-56
2024/03/11 01:26:33;;;;;;;3.10;2.47;;;21.30;56.10;;;;;;5009711;27;94259;-52
2024/03/11 01:28:59;;;;;;;2.85;2.28;;;21.30;56.30;;;;;;5014647;28;92461;-54
2024/03/11 01:31:25;;;;;;;2.35;1.92;;;21.30;56.20;;;;;;5011233;27;92525;-54
2024/03/11 01:33:51;;;;;;;3.67;2.22;;;21.30;56.10;;;;;;5025844;27;93993;-54
2024/03/11 01:36:18;;;;;;;3.80;2.33;;;21.30;56.10;;;;;;5010212;27;92747;-49
2024/03/11 01:38:46;;;;;;;3.63;2.00;;;21.30;56.10;;;;;;5041172;27;92292;-54
2024/03/11 01:41:13;;;;;;;3.53;2.17;;;21.30;56.10;;;;;;5016015;27;91604;-50
2024/03/11 01:43:40;;;;;;;3.83;2.70;;;21.30;56.20;;;;;;5042790;27;98354;-50
2024/03/11 01:46:06;;;;;;;2.83;1.80;;;21.30;56.00;;;;;;5020320;27;92543;-51
2024/03/11 01:48:33;;;;;;;3.65;2.03;;;21.30;56.20;;;;;;5026296;27;92895;-47
2024/03/11 01:50:59;;;;;;;3.25;1.88;;;21.30;56.20;;;;;;5029663;27;91948;-50
2024/03/11 01:53:27;;;;;;;2.83;1.90;;;21.20;56.20;;;;;;5011054;27;92888;-52
2024/03/11 01:55:54;;;;;;;3.05;1.92;;;21.20;56.20;;;;;;5025526;28;92773;-57
2024/03/11 01:58:22;;;;;;;3.33;2.33;;;21.30;56.20;;;;;;5037912;27;91785;-56
2024/03/11 02:00:49;;;;;;;2.47;1.92;;;21.30;56.10;;;;;;5068524;27;91910;-54
2024/03/11 02:03:15;;;;;;;3.47;2.42;;;21.30;56.10;;;;;;5054150;27;92995;-56
2024/03/11 02:05:43;;;;;;;2.10;1.73;;;21.20;56.00;;;;;;5049162;27;91697;-57
2024/03/11 02:08:09;;;;;;;4.22;1.98;;;21.20;56.10;;;;;;5029435;27;92543;-52
2024/03/11 02:10:36;;;;;;;2.67;1.92;;;21.20;56.10;;;;;;5019049;27;92629;-55
2024/03/11 02:13:02;;;;;;;2.25;1.60;;;21.20;55.90;;;;;;5022090;27;94108;-57
2024/03/11 02:15:29;;;;;;;3.45;2.10;;;21.20;56.00;;;;;;5024659;27;93484;-53
2024/03/11 02:17:55;;;;;;;2.92;2.10;;;21.20;56.00;;;;;;5032169;27;92642;-55
2024/03/11 02:20:21;;;;;;;3.58;1.98;;;21.20;56.00;;;;;;5020627;27;91958;-51
2024/03/11 02:22:53;;;;;;;1.90;1.60;;;21.20;56.00;;;;;;5036278;27;93080;-57
2024/03/11 02:25:21;;;;;;;1.92;1.58;;;21.20;56.00;;;;;;5025962;27;92818;-55
2024/03/11 02:27:50;;;;;;;2.10;1.70;;;21.20;56.00;;;;;;5010474;27;91970;-55
2024/03/11 02:30:16;;;;;;;;;;;21.20;56.00;;;;;;5022587;27;91730;-53
2024/03/11 02:32:44;;;;;;;3.45;1.90;;;21.20;56.00;;;;;;5010726;27;93301;-51
2024/03/11 02:35:11;;;;;;;2.28;1.60;;;21.20;56.10;;;;;;5011268;28;92831;-51
2024/03/11 02:37:38;;;;;;;2.92;1.90;;;21.20;56.00;;;;;;5010872;27;93632;-54
2024/03/11 02:40:07;;;;;;;3.47;2.67;;;21.20;55.90;;;;;;5011045;28;92692;-53
2024/03/11 02:42:36;;;;;;;1.63;1.50;;;21.10;56.00;;;;;;5027918;27;93754;-54
2024/03/11 02:45:05;;;;;;;;;;;21.20;56.10;;;;;;5025020;27;93667;-56
2024/03/11 02:47:33;;;;;;;2.80;1.95;;;21.20;56.10;;;;;;5020053;27;92267;-51
2024/03/11 02:50:00;;;;;;;2.80;1.98;;;21.10;56.00;;;;;;5011500;28;93210;-53
2024/03/11 02:52:29;;;;;;;2.05;1.70;;;21.10;56.10;;;;;;5010778;28;94222;-53
2024/03/11 02:54:55;;;;;;;2.97;2.28;;;21.10;56.00;;;;;;5014904;27;92776;-55
2024/03/11 02:57:22;;;;;;;2.40;1.63;;;21.10;55.90;;;;;;5011658;27;92481;-51
2024/03/11 02:59:50;;;;;;;2.50;1.77;;;21.10;55.90;;;;;;5016265;27;91980;-57
2024/03/11 03:02:18;;;;;;;2.13;1.65;;;21.10;55.90;;;;;;5009184;27;95087;-52
2024/03/11 03:04:45;;;;;;;2.80;1.75;;;21.10;55.90;;;;;;5028940;28;94661;-54
2024/03/11 03:07:12;;;;;;;2.45;1.75;;;21.10;56.00;;;;;;5022648;27;92800;-60
2024/03/11 03:09:38;;;;;;;2.15;1.75;;;21.10;55.90;;;;;;5009370;27;92510;-54
2024/03/11 03:12:05;;;;;;;2.78;2.22;;;21.10;55.90;;;;;;5024096;27;94132;-49
2024/03/11 03:14:31;;;;;;;2.97;1.80;;;21.10;55.90;;;;;;5007397;27;94470;-54
2024/03/11 03:16:57;;;;;;;1.90;1.65;;;21.10;55.90;;;;;;5025876;27;92715;-51
2024/03/11 03:19:23;;;;;;;3.10;2.25;;;21.10;55.90;;;;;;5026823;27;92418;-52
2024/03/11 03:21:51;;;;;;;3.03;1.77;;;21.10;55.80;;;;;;5024332;27;92751;-52
2024/03/11 03:24:17;;;;;;;2.15;1.55;;;21.10;56.00;;;;;;5012264;27;92805;-50
2024/03/11 03:26:43;;;;;;;2.75;1.92;;;21.10;55.90;;;;;;5011550;27;93124;-55
2024/03/11 03:29:09;;;;;;;2.95;1.83;;;21.10;55.80;;;;;;5012711;28;92215;-56
2024/03/11 03:31:35;;;;;;;2.13;1.63;;;21.00;55.80;;;;;;5019310;27;93208;-56
2024/03/11 03:34:01;;;;;;;2.42;1.75;;;21.00;55.70;;;;;;5016849;27;93302;-55
2024/03/11 03:36:28;;;;;;;2.97;2.35;;;21.00;55.70;;;;;;5019511;27;93166;-50
2024/03/11 03:38:54;;;;;;;2.30;1.67;;;21.00;55.80;;;;;;5014828;27;92152;-50
2024/03/11 03:41:19;;;;;;;2.20;1.80;;;21.00;55.90;;;;;;5027311;27;93145;-48
2024/03/11 03:43:46;;;;;;;2.25;1.50;;;21.00;55.90;;;;;;5022051;28;93368;-54
2024/03/11 03:46:13;;;;;;;1.85;1.38;;;21.00;55.80;;;;;;5008781;27;93374;-57
2024/03/11 03:48:39;;;;;;;2.00;1.50;;;21.00;55.70;;;;;;5007424;27;93182;-48
2024/03/11 03:51:05;;;;;;;2.92;1.92;;;21.00;55.80;;;;;;5008046;27;94150;-52
2024/03/11 03:53:31;;;;;;;3.10;1.70;;;21.00;55.70;;;;;;5007153;27;94064;-54
2024/03/11 03:55:57;;;;;;;2.58;1.83;;;21.00;55.70;;;;;;5008811;27;92392;-54
2024/03/11 03:58:23;;;;;;;3.35;1.98;;;21.00;55.70;;;;;;5015268;27;92258;-51
2024/03/11 04:00:49;;;;;;;3.42;2.03;;;21.00;55.70;;;;;;5009905;27;92236;-52
2024/03/11 04:03:21;;;;;;;2.42;1.67;;;21.00;55.60;;;;;;5027400;27;92813;-47
2024/03/11 04:05:50;;;;;;;2.35;1.65;;;21.00;55.60;;;;;;5030276;27;92561;-49
2024/03/11 04:08:16;;;;;;;1.70;1.50;;;21.00;55.60;;;;;;5031752;27;91595;-51
2024/03/11 04:10:42;;;;;;;2.78;1.80;;;20.90;55.50;;;;;;5032997;28;93783;-54
2024/03/11 04:13:08;;;;;;;2.63;1.90;;;20.90;55.60;;;;;;5030924;27;92485;-57
2024/03/11 04:15:34;;;;;;;1.77;1.58;;;21.00;55.60;;;;;;5023691;27;93011;-54
2024/03/11 04:18:05;;;;;;;2.47;1.80;;;21.00;55.00;;;;;;5021700;27;92141;-54
2024/03/11 04:20:31;;;;;;;4.15;1.90;;;20.90;55.50;;;;;;5016581;27;93024;-51
2024/03/11 04:22:58;;;;;;;4.35;1.73;;;20.90;55.50;;;;;;5012172;28;92939;-51
2024/03/11 04:25:26;;;;;;;1.95;1.45;;;20.90;55.50;;;;;;5016480;27;93686;-54
2024/03/11 04:27:54;;;;;;;1.92;1.52;;;20.90;55.50;;;;;;5024416;27;92339;-52
2024/03/11 04:30:27;;;;;;;2.05;1.60;;;21.00;55.60;;;;;;5029019;27;93395;-54
2024/03/11 04:32:52;;;;;;;1.90;1.67;;;20.90;55.50;;;;;;5016103;27;92313;-48
2024/03/11 04:35:25;;;;;;;2.85;1.75;;;20.90;55.60;;;;;;5015926;27;92266;-51
2024/03/11 04:37:56;;;;;;;2.00;1.80;;;20.90;55.50;;;;;;5029162;28;92325;-54
2024/03/11 04:40:26;;;;;;;2.53;1.77;;;20.90;55.40;;;;;;5026388;27;93438;-50
2024/03/11 04:42:56;;;;;;;1.90;1.60;;;20.90;55.40;;;;;;5029377;27;93776;-48
2024/03/11 04:45:22;;;;;;;1.88;1.30;;;20.90;55.50;;;;;;5031763;27;92263;-50
2024/03/11 04:47:49;;;;;;;2.55;1.65;;;20.90;55.50;;;;;;5030879;27;92789;-55
2024/03/11 04:50:24;;;;;;;2.42;1.98;;;20.90;55.50;;;;;;5028758;27;93104;-52
2024/03/11 04:52:51;;;;;;;2.13;1.77;;;20.90;55.50;;;;;;5013425;28;92643;-56
2024/03/11 04:55:16;;;;;;;1.98;1.50;;;20.90;55.60;;;;;;5013248;27;92176;-53
2024/03/11 04:57:43;;;;;;;2.83;1.67;;;20.90;55.60;;;;;;5015627;27;92165;-52
2024/03/11 05:00:10;;;;;;;2.03;1.55;;;20.80;55.50;;;;;;5020284;27;93900;-52
2024/03/11 05:02:38;;;;;;;2.08;1.63;;;20.80;55.50;;;;;;5008908;27;93984;-53
2024/03/11 05:05:09;;;;;;;2.17;1.48;;;20.90;55.60;;;;;;5010280;28;93477;-48
2024/03/11 05:07:35;;;;;;;2.47;1.63;;;20.90;55.60;;;;;;5015412;27;92270;-52
2024/03/11 05:10:01;;;;;;;1.30;1.20;;;20.80;55.60;;;;;;5021409;27;93183;-51
2024/03/11 05:12:28;;;;;;;2.17;1.67;;;20.80;55.40;;;;;;5011816;27;92672;-53
2024/03/11 05:14:54;;;;;;;2.00;1.73;;;20.80;55.60;;;;;;5025945;27;92946;-52
2024/03/11 05:17:21;;;;;;;3.38;1.70;;;20.80;55.50;;;;;;5015913;27;92007;-51
2024/03/11 05:19:46;;;;;;;1.75;1.60;;;20.80;55.40;;;;;;5029015;27;96782;-49
2024/03/11 05:22:13;;;;;;;1.70;1.40;;;20.80;55.40;;;;;;5011824;27;95582;-47
2024/03/11 05:24:39;;;;;;;2.33;1.58;;;20.80;55.40;;;;;;5013436;27;92869;-55
2024/03/11 05:27:06;;;;;;;2.67;1.85;;;20.80;55.60;;;;;;5007636;27;92040;-47
2024/03/11 05:29:33;;;;;;;2.08;1.00;;;20.80;55.50;;;;;;5011268;27;94107;-47
2024/03/11 05:31:59;;;;;;;2.35;1.60;;;20.80;55.50;;;;;;5026429;28;93130;-53
2024/03/11 05:34:25;;;;;;;1.63;1.30;;;20.80;55.60;;;;;;5021183;27;92364;-58
2024/03/11 05:36:52;;;;;;;1.55;1.30;;;20.80;55.50;;;;;;5003924;27;92522;-55
2024/03/11 05:39:22;;;;;;;2.20;1.33;;;20.80;55.40;;;;;;5004863;27;93113;-52
2024/03/11 05:41:50;;;;;;;2.53;1.70;;;20.80;55.50;;;;;;5024726;27;92698;-50
2024/03/11 05:44:19;;;;;;;1.85;1.35;;;20.80;55.50;;;;;;5028862;27;92430;-50
2024/03/11 05:46:45;;;;;;;2.65;1.88;;;20.70;55.40;;;;;;5013571;28;91619;-51
2024/03/11 05:49:15;;;;;;;2.03;1.48;;;20.80;55.60;;;;;;5030279;27;93622;-55
2024/03/11 05:51:41;;;;;;;1.60;1.50;;;20.70;55.40;;;;;;5027843;27;92925;-48
2024/03/11 05:54:15;;;;;;;1.95;1.48;;;20.70;55.50;;;;;;5029459;27;93434;-55
2024/03/11 05:56:43;;;;;;;1.40;1.20;;;20.70;55.60;;;;;;5025707;27;93482;-50
2024/03/11 05:59:14;;;;;;;1.60;1.23;;;20.70;55.50;;;;;;5020165;28;92820;-57
2024/03/11 06:01:43;;;;;;;1.40;1.27;;;20.70;55.40;;;;;;5000315;28;97319;-51
2024/03/11 06:04:12;;;;;;;1.77;1.50;;;20.70;55.40;;;;;;5019760;27;92099;-55
2024/03/11 06:06:47;;;;;;;2.03;1.47;;;20.70;55.50;;;;;;5026136;27;92722;-52
2024/03/11 06:09:14;;;;;;;1.80;1.27;;;20.70;55.50;;;;;;5025400;27;93073;-54
2024/03/11 06:11:49;;;;;;;1.77;1.50;;;20.70;55.50;;;;;;5009420;27;92758;-52
2024/03/11 06:14:17;;;;;;;1.55;1.30;;;20.70;55.30;;;;;;5025741;27;92657;-50
2024/03/11 06:16:44;;;;;;;1.80;1.42;;;20.70;55.40;;;;;;5029020;27;92666;-56
2024/03/11 06:19:11;;;;;;;1.95;1.40;;;20.70;55.40;;;;;;5010318;28;95554;-57
2024/03/11 06:21:45;;;;;;;2.30;1.58;;;20.70;55.40;;;;;;5015935;27;93817;-55
2024/03/11 06:24:11;;;;;;;2.75;1.42;;;20.70;55.50;;;;;;5044251;27;92698;-46
2024/03/11 06:26:37;;;;;;;1.67;1.30;;;20.70;55.40;;;;;;5029465;27;92233;-50
2024/03/11 06:29:03;;;;;;;1.83;1.30;;;20.70;55.40;;;;;;5028930;27;93157;-50
2024/03/11 06:31:33;;;;;;;2.28;1.52;;;20.70;55.50;;;;;;5028247;27;93482;-51
2024/03/11 06:34:03;;;;;;;1.90;1.30;;;20.70;55.40;;;;;;5020804;27;92537;-52
2024/03/11 06:36:30;;;;;;;2.05;1.50;;;20.70;55.40;;;;;;5022597;27;91383;-50
2024/03/11 06:38:58;;;;;;;2.08;1.48;;;20.70;55.30;;;;;;5027512;27;93585;-54
2024/03/11 06:41:25;;;;;;;1.75;1.45;;;20.70;55.40;;;;;;5028937;27;93296;-51
2024/03/11 06:43:54;;;;;;;1.77;1.40;;;20.60;55.40;;;;;;5009212;28;93460;-53
2024/03/11 06:46:20;;;;;;;1.77;1.50;;;20.70;55.30;;;;;;5035946;27;94155;-51
2024/03/11 06:48:47;;;;;;;1.42;1.33;;;20.70;55.00;;;;;;5008369;27;93094;-52
2024/03/11 06:51:14;;;;;;;3.27;2.13;;;20.70;55.20;;;;;;5040495;27;95763;-55
2024/03/11 06:53:40;;;;;;;4.18;2.42;;;20.70;55.50;;;;;;5009393;27;92110;-52
2024/03/11 06:56:07;;;;;;;2.72;1.98;;;20.70;55.70;;;;;;5004988;28;92110;-51
2024/03/11 06:58:33;;;;;;;4.75;2.30;;;20.70;55.80;;;;;;5007544;27;92634;-49
2024/03/11 07:00:59;;;;;;;9.75;2.88;;;20.80;55.60;;;;;;5008553;27;92898;-49
2024/03/11 07:03:30;;;;;;;5.20;2.72;;;20.90;55.40;;;;;;5008442;27;92290;-51
2024/03/11 07:05:59;;;;;;;4.32;2.35;;;20.90;55.50;;;;;;5008097;27;92121;-53
2024/03/11 07:08:25;;;;;;;;;;;21.00;55.50;;;;;;5023062;27;94922;-56
2024/03/11 07:10:53;;;;;;;5.70;2.25;;;21.00;55.60;;;;;;5010369;28;92462;-52
2024/03/11 07:13:19;;;;;;;3.15;2.17;;;21.00;55.70;;;;;;5002837;27;92309;-50
2024/03/11 07:15:44;;;;;;;4.70;2.42;;;21.10;55.90;;;;;;4989917;27;92240;-52
2024/03/11 07:18:11;;;;;;;4.57;2.60;;;21.10;55.60;;;;;;4983835;28;93633;-54
2024/03/11 07:20:38;;;;;;;5.85;3.17;;;21.10;55.80;;;;;;4984650;28;93001;-49
2024/03/11 07:23:04;;;;;;;5.03;2.40;;;21.00;55.90;;;;;;4988740;28;92366;-50
2024/03/11 07:25:34;;;;;;;3.42;2.10;;;21.00;56.10;;;;;;5018823;27;91575;-55
2024/03/11 07:28:00;;;;;;;4.22;2.60;;;21.00;56.20;;;;;;4987576;28;93919;-52
2024/03/11 07:30:26;;;;;;;7.05;2.92;;;21.00;56.40;;;;;;5020500;27;93008;-53
2024/03/11 07:33:08;;;;;;;4.97;2.20;;;21.00;56.30;;;;;;4988477;27;93263;-53
2024/03/11 07:35:41;;;;;;;6.85;2.33;;;20.90;56.40;;;;;;5002414;28;92329;-54
2024/03/11 07:38:08;;;;;;;5.05;2.50;;;20.90;56.40;;;;;;5008486;28;93041;-49
2024/03/11 07:40:35;;;;;;;5.50;2.80;;;20.90;56.50;;;;;;5005854;28;95161;-53
2024/03/11 07:43:03;;;;;;;4.15;2.22;;;20.90;56.50;;;;;;4989729;28;92467;-50
2024/03/11 07:45:32;;;;;;;3.10;2.20;;;21.00;56.40;;;;;;4986080;28;92521;-55
2024/03/11 07:47:58;;;;;;;7.22;2.13;;;20.90;54.50;;;;;;5004154;27;93053;-51
2024/03/11 07:50:24;;;;;;;6.07;3.05;;;21.00;54.20;;;;;;5008362;27;93409;-50
2024/03/11 07:52:51;;;;;;;2.67;2.13;;;20.90;54.30;;;;;;5008703;28;91962;-55
2024/03/11 07:55:22;;;;;;;4.25;2.30;;;20.90;55.30;;;;;;5022012;28;92171;-53
2024/03/11 07:57:48;;;;;;;3.40;2.10;;;20.90;55.70;;;;;;5007500;27;94769;-50
2024/03/11 08:00:18;;;;;;;13.63;4.50;;;21.00;55.70;;;;;;4996001;28;93253;-50
2024/03/11 08:02:52;;;;;;;36.38;6.57;;;21.00;55.60;;;;;;5004002;27;91976;-50
2024/03/11 08:05:19;;;;;;;21.77;5.45;;;21.00;55.10;;;;;;5001572;27;92641;-49
2024/03/11 08:07:47;;;;;;;16.45;5.75;;;21.10;55.20;;;;;;5001278;28;92418;-53
2024/03/11 08:10:13;;;;;;;19.60;5.25;;;21.10;55.30;;;;;;4994732;27;93226;-49
2024/03/11 08:12:43;;;;;;;19.73;4.30;;;21.20;55.40;;;;;;4991254;28;92083;-51
2024/03/11 08:15:14;;;;;;;25.42;6.18;;;21.30;55.20;;;;;;4996765;28;91838;-57
2024/03/11 08:17:41;;;;;;;17.45;5.05;;;21.30;54.70;;;;;;5033374;28;93369;-53
2024/03/11 08:20:09;;;;;;;22.52;5.90;;;21.30;54.40;;;;;;5038113;27;91935;-56
2024/03/11 08:22:43;;;;;;;21.05;5.40;;;21.30;54.50;;;;;;5028030;28;94642;-55
2024/03/11 08:25:12;;;;;;;23.15;5.13;;;21.20;54.70;;;;;;5022106;28;92178;-54
2024/03/11 08:27:38;;;;;;;;;;;21.20;54.80;;;;;;4993412;28;93256;-51
2024/03/11 08:30:15;;;;;;;19.38;5.07;;;21.20;55.00;;;;;;4998449;28;93494;-57
2024/03/11 08:32:42;;;;;;;18.83;6.03;;;21.20;55.40;;;;;;5001420;27;92396;-55
2024/03/11 08:35:11;;;;;;;15.95;4.72;;;21.20;55.50;;;;;;5027304;28;92732;-55
2024/03/11 08:37:41;;;;;;;16.95;4.75;;;21.20;55.80;;;;;;4993782;28;93949;-56
2024/03/11 08:40:08;;;;;;;24.65;5.18;;;21.20;56.00;;;;;;5010555;28;93252;-52
2024/03/11 08:42:36;;;;;;;22.50;6.20;;;21.20;56.20;;;;;;5006071;28;92990;-55
2024/03/11 08:45:04;;;;;;;16.95;5.28;;;21.20;56.80;;;;;;4997940;28;92556;-52
2024/03/11 08:47:31;;;;;;;18.23;5.00;;;21.20;56.80;;;;;;4992583;27;94963;-54
2024/03/11 08:49:58;;;;;;;18.23;5.53;;;21.20;56.50;;;;;;5000198;28;93957;-50
2024/03/11 08:52:24;;;;;;;16.27;5.18;;;21.20;56.90;;;;;;4984989;28;92083;-50
2024/03/11 08:54:50;;;;;;;18.40;5.13;;;21.20;57.40;;;;;;4988476;28;92633;-53
2024/03/11 08:57:16;;;;;;;21.33;6.20;;;21.10;58.10;;;;;;4996165;28;93523;-54
2024/03/11 08:59:43;;;;;;;18.27;5.32;;;21.20;58.30;;;;;;4991170;28;92842;-50
2024/03/11 09:02:09;;;;;;;20.55;5.78;;;21.10;58.50;;;;;;4998613;28;94046;-49
2024/03/11 09:04:38;;;;;;;15.40;4.97;;;21.10;58.40;;;;;;4992511;28;91740;-51
2024/03/11 09:07:07;;;;;;;20.88;6.32;;;21.20;58.20;;;;;;4993282;28;93573;-54
2024/03/11 09:09:33;;;;;;;;;;;21.20;58.10;;;;;;4990097;27;93214;-57
2024/03/11 09:12:01;;;;;;;12.40;5.55;;;21.20;58.10;;;;;;5025149;27;93356;-51
2024/03/11 09:14:27;;;;;;;18.45;5.53;;;21.30;58.40;;;;;;5005556;27;92924;-53
2024/03/11 09:16:58;;;;;;;15.32;4.65;;;21.20;58.30;;;;;;5007767;28;93943;-50
2024/03/11 09:19:25;;;;;;;15.73;4.90;;;21.20;58.10;;;;;;5001399;27;93032;-53
2024/03/11 09:21:52;;;;;;;12.98;4.40;;;21.20;57.80;;;;;;4997686;28;92635;-50
2024/03/11 09:24:20;;;;;;;12.63;4.50;;;21.20;57.60;;;;;;4999912;27;92386;-50
2024/03/11 09:26:50;;;;;;;16.27;4.18;;;21.30;57.30;;;;;;5002853;27;93535;-53
2024/03/11 09:29:18;;;;;;;14.77;4.35;;;21.30;57.20;;;;;;5022878;27;93604;-52
2024/03/11 09:31:47;;;;;;;13.23;4.55;;;21.30;57.00;;;;;;4991621;28;93142;-54
2024/03/11 09:34:15;;;;;;;9.38;3.97;;;21.30;56.80;;;;;;4991416;28;92424;-53
2024/03/11 09:36:41;;;;;;;13.93;5.03;;;21.30;56.70;;;;;;5005567;27;94612;-49
2024/03/11 09:39:11;;;;;;;14.00;4.50;;;21.30;57.00;;;;;;4998014;28;94180;-50
2024/03/11 09:41:44;;;;;;;16.48;4.53;;;21.30;57.00;;;;;;4993066;28;92402;-56
2024/03/11 09:44:24;;;;;;;10.60;3.50;;;21.30;56.50;;;;;;5017448;28;92255;-49
2024/03/11 09:47:00;;;;;;;8.98;3.65;;;21.30;57.00;;;;;;5002204;28;97071;-48
2024/03/11 09:49:26;;;;;;;16.33;5.68;;;21.30;56.20;;;;;;5001481;28;92953;-49
2024/03/11 09:51:55;;;;;;;14.20;5.15;;;21.20;56.60;;;;;;5001349;28;92874;-53
2024/03/11 09:54:23;;;;;;;10.57;3.88;;;21.10;56.30;;;;;;4988618;28;91547;-56
2024/03/11 09:56:51;;;;;;;12.73;4.10;;;21.10;55.80;;;;;;4994122;28;93908;-50
2024/03/11 09:59:24;;;;;;;11.57;4.38;;;21.10;55.80;;;;;;4992037;27;94756;-53
2024/03/11 10:01:52;;;;;;;15.63;4.55;;;21.10;55.90;;;;;;5035151;27;93242;-48
2024/03/11 10:04:21;;;;;;;11.05;3.92;;;21.10;56.10;;;;;;5004294;27;93677;-56
2024/03/11 10:07:00;;;;;;;11.23;4.40;;;21.20;56.40;;;;;;5001457;27;93329;-49
2024/03/11 10:09:46;;;;;;;8.20;3.40;;;21.20;57.00;;;;;;5030294;27;92601;-57
2024/03/11 10:12:15;;;;;;;11.30;3.53;;;21.30;56.50;;;;;;4993909;27;92550;-46
2024/03/11 10:14:43;;;;;;;9.57;3.92;;;21.40;56.70;;;;;;4990598;28;92011;-49
2024/03/11 10:17:21;;;;;;;11.27;3.83;;;21.30;55.20;;;;;;4995815;28;93123;-50
2024/03/11 10:19:54;;;;;;;8.23;2.80;;;21.30;55.40;;;;;;5004959;28;98549;-50
2024/03/11 10:22:28;;;;;;;14.05;4.50;;;21.30;55.40;;;;;;4991490;28;92145;-50
2024/03/11 10:24:56;;;;;;;11.45;4.07;;;21.30;55.30;;;;;;4995139;27;92370;-50
2024/03/11 10:27:31;;;;;;;6.35;2.80;;;21.30;55.50;;;;;;5030620;27;95158;-54
2024/03/11 10:29:58;;;;;;;12.68;3.20;;;21.30;55.30;;;;;;4998842;27;93539;-55
2024/03/11 10:32:45;;;;;;;8.70;4.20;;;21.30;54.90;;;;;;5004639;28;92679;-55
2024/03/11 10:35:20;;;;;;;7.50;2.60;;;21.20;54.90;;;;;;5018355;28;93782;-54
2024/03/11 10:37:46;;;;;;;13.88;3.20;;;21.20;55.00;;;;;;5008078;28;98171;-51
2024/03/11 10:40:18;;;;;;;9.38;3.58;;;21.20;55.60;;;;;;4985473;28;92393;-54
2024/03/11 10:42:53;;;;;;;12.93;3.55;;;21.30;55.70;;;;;;4996035;28;92466;-52
2024/03/11 10:45:30;;;;;;;10.02;2.78;;;21.30;55.60;;;;;;5000221;28;91480;-52
2024/03/11 10:48:00;;;;;;;8.85;3.03;;;21.30;55.80;;;;;;5000062;28;93674;-51
2024/03/11 10:50:28;;;;;;;7.78;3.03;;;21.30;55.80;;;;;;4994981;27;92611;-53
2024/03/11 10:52:59;;;;;;;8.43;2.90;;;21.30;55.80;;;;;;4997809;28;93397;-52
2024/03/11 10:55:34;;;;;;;9.40;2.90;;;21.30;55.70;;;;;;4998189;28;92597;-52
2024/03/11 10:58:04;;;;;;;7.57;2.65;;;21.30;55.80;;;;;;5009114;28;94261;-53
2024/03/11 11:00:34;;;;;;;8.43;3.45;;;21.30;56.20;;;;;;5009957;27;92677;-50
2024/03/11 11:03:07;;;;;;;5.65;3.65;;;21.30;57.00;;;;;;5000102;28;92602;-51
2024/03/11 11:05:39;;;;;;;8.60;2.70;;;21.30;57.30;;;;;;4991055;28;92500;-51
2024/03/11 11:08:07;;;;;;;9.45;3.63;;;21.30;58.00;;;;;;5008185;28;93082;-52
2024/03/11 11:10:38;;;;;;;10.93;3.13;;;21.20;58.10;;;;;;5009958;27;92955;-54
2024/03/11 11:13:05;;;;;;;13.85;3.95;;;21.20;58.30;;;;;;5025686;27;92247;-52
2024/03/11 11:15:35;;;;;;;7.47;2.78;;;21.20;58.00;;;;;;4991834;28;92275;-52
2024/03/11 11:18:04;;;;;;;8.30;3.60;;;21.30;57.80;;;;;;4985239;28;95389;-50
2024/03/11 11:20:30;;;;;;;3.47;2.40;;;21.30;57.70;;;;;;4988834;28;93806;-54
2024/03/11 11:23:02;;;;;;;9.95;3.00;;;21.40;57.60;;;;;;4988765;28;92301;-52
2024/03/11 11:25:39;;;;;;;6.15;3.60;;;21.40;57.60;;;;;;4987706;28;92542;-47
2024/03/11 11:28:15;;;;;;;6.85;2.67;;;21.40;57.50;;;;;;4984747;28;93404;-50
2024/03/11 11:30:45;;;;;;;7.38;3.20;;;21.50;57.50;;;;;;4990474;28;92907;-52
2024/03/11 11:33:31;;;;;;;6.57;2.67;;;21.40;57.60;;;;;;5005445;28;92637;-56
2024/03/11 11:35:58;;;;;;;9.43;3.35;;;21.50;57.80;;;;;;5009136;27;91515;-52
2024/03/11 11:38:24;;;;;;;6.13;3.05;;;21.40;58.00;;;;;;5035937;27;94154;-49
2024/03/11 11:40:53;;;;;;;6.10;3.13;;;21.40;58.20;;;;;;5023579;27;93145;-54
2024/03/11 11:43:41;;;;;;;9.15;3.08;;;21.40;58.20;;;;;;4989955;27;93349;-51
2024/03/11 11:46:11;;;;;;;8.20;2.90;;;21.40;58.30;;;;;;4994205;28;92089;-54
2024/03/11 11:48:37;;;;;;;6.28;2.75;;;21.40;58.50;;;;;;5003751;28;92756;-52
2024/03/11 11:51:06;;;;;;;6.75;3.05;;;21.40;58.50;;;;;;5025218;27;93168;-49
2024/03/11 11:53:36;;;;;;;6.43;3.38;;;21.40;58.50;;;;;;4998415;27;92589;-52
2024/03/11 11:56:03;;;;;;;8.80;2.67;;;21.40;58.60;;;;;;5010342;28;92412;-55
2024/03/11 11:58:29;;;;;;;10.23;3.42;;;21.30;59.00;;;;;;5033465;27;94476;-51
2024/03/11 12:01:03;;;;;;;6.70;2.72;;;21.30;58.60;;;;;;5016718;27;92217;-55
2024/03/11 12:03:32;;;;;;;8.75;3.35;;;21.30;58.20;;;;;;5024824;27;92654;-59
2024/03/11 12:06:19;;;;;;;11.15;3.40;;;21.30;58.40;;;;;;5023929;27;94074;-52
2024/03/11 12:08:47;;;;;;;5.22;2.80;;;21.30;58.60;;;;;;5012069;27;94214;-50
2024/03/11 12:11:19;;;;;;;8.10;3.20;;;21.30;59.00;;;;;;5010059;28;94055;-53
2024/03/11 12:13:46;;;;;;;6.13;2.45;;;21.40;59.30;;;;;;5021641;28;93122;-53
2024/03/11 12:16:25;;;;;;;6.25;2.47;;;21.40;58.90;;;;;;5026719;27;91960;-54
2024/03/11 12:19:00;;;;;;;5.35;2.67;;;21.50;59.10;;;;;;5018558;27;94188;-49
2024/03/11 12:21:28;;;;;;;5.05;2.90;;;21.40;59.20;;;;;;5021064;27;93267;-55
2024/03/11 12:23:55;;;;;;;3.47;1.88;;;21.40;59.20;;;;;;5028356;27;92717;-56
2024/03/11 12:26:22;;;;;;;3.85;2.35;;;21.40;58.30;;;;;;4997102;27;91365;-50
2024/03/11 12:29:14;;;;;;;5.95;2.67;;;21.30;57.00;;;;;;5017066;28;93625;-53
2024/03/11 12:31:43;;;;;;;3.80;2.17;;;21.20;58.00;;;;;;5008081;28;97180;-53
2024/03/11 12:34:13;;;;;;;5.68;2.70;;;21.20;58.60;;;;;;5025024;27;93190;-53
2024/03/11 12:36:46;;;;;;;5.10;2.63;;;21.20;59.70;;;;;;5018888;27;92402;-53
2024/03/11 12:39:25;;;;;;;9.07;2.78;;;21.10;61.60;;;;;;5013840;27;93127;-51
2024/03/11 12:41:57;;;;;;;5.07;2.47;;;21.20;61.10;;;;;;5006258;27;92850;-51
2024/03/11 12:44:24;;;;;;;4.10;2.65;;;21.20;67.60;;;;;;5009267;27;91974;-56
2024/03/11 12:46:53;;;;;;;8.77;3.20;;;21.10;63.80;;;;;;5020902;28;92536;-57
2024/03/11 12:49:24;;;;;;;7.40;2.97;;;21.10;62.80;;;;;;5019653;27;93286;-50
2024/03/11 12:52:02;;;;;;;4.28;2.38;;;21.10;60.90;;;;;;5005613;27;94093;-56